sensor_id;sensor_type;location;lat;lon;timestamp;P1;durP1;ratioP1;P2;durP2;ratioP2
11988;SDS011;6054;50.966;7.094;2023-04-21T00:01:43;13.65;;;12.35;;
11988;SDS011;6054;50.966;7.094;2023-04-21T00:04:10;13.55;;;12.15;;
11988;SDS011;6054;50.966;7.094;2023-04-21T00:06:39;14.63;;;12.25;;
11988;SDS011;6054;50.966;7.094;2023-04-21T00:09:06;13.63;;;12.18;;
11988;SDS011;6054;50.966;7.094;2023-04-21T00:11:35;14.10;;;12.60;;
11988;SDS011;6054;50.966;7.094;2023-04-21T00:14:03;14.15;;;12.73;;
11988;SDS011;6054;50.966;7.094;2023-04-21T00:16:30;14.32;;;12.45;;
11988;SDS011;6054;50.966;7.094;2023-04-21T00:18:57;14.45;;;12.95;;
11988;SDS011;6054;50.966;7.094;2023-04-21T00:21:23;14.68;;;13.05;;
11988;SDS011;6054;50.966;7.094;2023-04-21T00:23:50;13.77;;;12.40;;
11988;SDS011;6054;50.966;7.094;2023-04-21T00:26:17;14.75;;;12.93;;
11988;SDS011;6054;50.966;7.094;2023-04-21T00:28:45;14.48;;;12.52;;
11988;SDS011;6054;50.966;7.094;2023-04-21T00:31:13;15.40;;;13.68;;
11988;SDS011;6054;50.966;7.094;2023-04-21T00:33:40;14.60;;;13.10;;
11988;SDS011;6054;50.966;7.094;2023-04-21T00:36:07;13.65;;;12.25;;
11988;SDS011;6054;50.966;7.094;2023-04-21T00:38:34;16.40;;;12.70;;
11988;SDS011;6054;50.966;7.094;2023-04-21T00:41:00;15.38;;;13.77;;
11988;SDS011;6054;50.966;7.094;2023-04-21T00:43:27;16.20;;;13.57;;
11988;SDS011;6054;50.966;7.094;2023-04-21T00:45:54;15.82;;;14.13;;
11988;SDS011;6054;50.966;7.094;2023-04-21T00:48:23;16.38;;;14.65;;
11988;SDS011;6054;50.966;7.094;2023-04-21T00:50:49;16.92;;;13.75;;
11988;SDS011;6054;50.966;7.094;2023-04-21T00:53:16;15.55;;;13.95;;
11988;SDS011;6054;50.966;7.094;2023-04-21T00:55:44;18.23;;;14.27;;
11988;SDS011;6054;50.966;7.094;2023-04-21T00:58:12;15.65;;;14.05;;
11988;SDS011;6054;50.966;7.094;2023-04-21T01:00:38;17.35;;;13.60;;
11988;SDS011;6054;50.966;7.094;2023-04-21T01:03:06;15.20;;;13.60;;
11988;SDS011;6054;50.966;7.094;2023-04-21T01:05:35;16.70;;;14.65;;
11988;SDS011;6054;50.966;7.094;2023-04-21T01:08:01;15.57;;;13.85;;
11988;SDS011;6054;50.966;7.094;2023-04-21T01:10:28;17.25;;;14.35;;
11988;SDS011;6054;50.966;7.094;2023-04-21T01:12:55;16.40;;;14.52;;
11988;SDS011;6054;50.966;7.094;2023-04-21T01:15:22;15.32;;;13.57;;
11988;SDS011;6054;50.966;7.094;2023-04-21T01:17:49;17.67;;;14.57;;
11988;SDS011;6054;50.966;7.094;2023-04-21T01:20:18;15.65;;;14.13;;
11988;SDS011;6054;50.966;7.094;2023-04-21T01:22:46;18.88;;;15.00;;
11988;SDS011;6054;50.966;7.094;2023-04-21T01:25:15;15.45;;;13.73;;
11988;SDS011;6054;50.966;7.094;2023-04-21T01:27:42;19.40;;;15.07;;
11988;SDS011;6054;50.966;7.094;2023-04-21T01:30:09;15.57;;;13.95;;
11988;SDS011;6054;50.966;7.094;2023-04-21T01:32:36;16.80;;;14.45;;
11988;SDS011;6054;50.966;7.094;2023-04-21T01:35:04;16.92;;;14.13;;
11988;SDS011;6054;50.966;7.094;2023-04-21T01:37:31;17.58;;;14.63;;
11988;SDS011;6054;50.966;7.094;2023-04-21T01:40:01;18.17;;;14.57;;
11988;SDS011;6054;50.966;7.094;2023-04-21T01:42:32;16.73;;;13.95;;
11988;SDS011;6054;50.966;7.094;2023-04-21T01:44:59;16.40;;;14.52;;
11988;SDS011;6054;50.966;7.094;2023-04-21T01:47:26;17.83;;;15.10;;
11988;SDS011;6054;50.966;7.094;2023-04-21T01:49:53;17.35;;;15.48;;
11988;SDS011;6054;50.966;7.094;2023-04-21T01:52:20;19.23;;;15.90;;
11988;SDS011;6054;50.966;7.094;2023-04-21T01:54:47;17.13;;;15.13;;
11988;SDS011;6054;50.966;7.094;2023-04-21T01:57:15;19.30;;;16.27;;
11988;SDS011;6054;50.966;7.094;2023-04-21T01:59:42;18.27;;;15.95;;
11988;SDS011;6054;50.966;7.094;2023-04-21T02:02:09;17.30;;;15.50;;
11988;SDS011;6054;50.966;7.094;2023-04-21T02:04:36;18.95;;;15.73;;
11988;SDS011;6054;50.966;7.094;2023-04-21T02:07:03;18.80;;;16.35;;
11988;SDS011;6054;50.966;7.094;2023-04-21T02:09:30;17.33;;;15.25;;
11988;SDS011;6054;50.966;7.094;2023-04-21T02:11:57;18.38;;;15.80;;
11988;SDS011;6054;50.966;7.094;2023-04-21T02:14:25;19.75;;;16.35;;
11988;SDS011;6054;50.966;7.094;2023-04-21T02:16:52;18.40;;;15.73;;
11988;SDS011;6054;50.966;7.094;2023-04-21T02:19:20;19.60;;;17.10;;
11988;SDS011;6054;50.966;7.094;2023-04-21T02:21:47;20.13;;;15.70;;
11988;SDS011;6054;50.966;7.094;2023-04-21T02:24:13;19.23;;;15.90;;
11988;SDS011;6054;50.966;7.094;2023-04-21T02:26:40;18.73;;;15.75;;
11988;SDS011;6054;50.966;7.094;2023-04-21T02:29:07;19.30;;;15.60;;
11988;SDS011;6054;50.966;7.094;2023-04-21T02:31:35;18.08;;;15.52;;
11988;SDS011;6054;50.966;7.094;2023-04-21T02:34:02;19.08;;;15.63;;
11988;SDS011;6054;50.966;7.094;2023-04-21T02:36:28;19.40;;;15.68;;
11988;SDS011;6054;50.966;7.094;2023-04-21T02:38:56;19.45;;;16.67;;
11988;SDS011;6054;50.966;7.094;2023-04-21T02:41:22;17.42;;;15.50;;
11988;SDS011;6054;50.966;7.094;2023-04-21T02:43:49;21.25;;;16.30;;
11988;SDS011;6054;50.966;7.094;2023-04-21T02:46:16;19.92;;;15.95;;
11988;SDS011;6054;50.966;7.094;2023-04-21T02:48:44;17.25;;;14.93;;
11988;SDS011;6054;50.966;7.094;2023-04-21T02:51:11;17.30;;;14.73;;
11988;SDS011;6054;50.966;7.094;2023-04-21T02:53:39;17.23;;;14.98;;
11988;SDS011;6054;50.966;7.094;2023-04-21T02:56:06;18.42;;;15.13;;
11988;SDS011;6054;50.966;7.094;2023-04-21T02:58:34;18.17;;;15.88;;
11988;SDS011;6054;50.966;7.094;2023-04-21T03:01:01;18.92;;;16.20;;
11988;SDS011;6054;50.966;7.094;2023-04-21T03:03:28;20.00;;;16.45;;
11988;SDS011;6054;50.966;7.094;2023-04-21T03:05:57;18.70;;;16.27;;
11988;SDS011;6054;50.966;7.094;2023-04-21T03:08:24;18.33;;;16.08;;
11988;SDS011;6054;50.966;7.094;2023-04-21T03:10:51;17.67;;;15.52;;
11988;SDS011;6054;50.966;7.094;2023-04-21T03:13:18;21.58;;;15.85;;
11988;SDS011;6054;50.966;7.094;2023-04-21T03:15:45;18.27;;;15.23;;
11988;SDS011;6054;50.966;7.094;2023-04-21T03:18:12;20.65;;;14.98;;
11988;SDS011;6054;50.966;7.094;2023-04-21T03:20:38;18.80;;;15.55;;
11988;SDS011;6054;50.966;7.094;2023-04-21T03:23:07;17.80;;;14.88;;
11988;SDS011;6054;50.966;7.094;2023-04-21T03:25:33;17.10;;;14.02;;
11988;SDS011;6054;50.966;7.094;2023-04-21T03:28:00;20.65;;;15.75;;
11988;SDS011;6054;50.966;7.094;2023-04-21T03:30:27;20.45;;;15.88;;
11988;SDS011;6054;50.966;7.094;2023-04-21T03:32:54;21.40;;;15.77;;
11988;SDS011;6054;50.966;7.094;2023-04-21T03:35:22;18.50;;;14.63;;
11988;SDS011;6054;50.966;7.094;2023-04-21T03:37:49;18.42;;;15.60;;
11988;SDS011;6054;50.966;7.094;2023-04-21T03:40:17;20.27;;;14.88;;
11988;SDS011;6054;50.966;7.094;2023-04-21T03:42:44;18.90;;;16.60;;
11988;SDS011;6054;50.966;7.094;2023-04-21T03:45:11;19.98;;;15.77;;
11988;SDS011;6054;50.966;7.094;2023-04-21T03:47:38;18.13;;;15.48;;
11988;SDS011;6054;50.966;7.094;2023-04-21T03:50:05;17.00;;;14.93;;
11988;SDS011;6054;50.966;7.094;2023-04-21T03:52:32;18.83;;;15.25;;
11988;SDS011;6054;50.966;7.094;2023-04-21T03:54:59;18.13;;;15.27;;
11988;SDS011;6054;50.966;7.094;2023-04-21T03:57:27;18.75;;;15.23;;
11988;SDS011;6054;50.966;7.094;2023-04-21T03:59:54;17.92;;;15.80;;
11988;SDS011;6054;50.966;7.094;2023-04-21T04:02:20;21.02;;;17.10;;
11988;SDS011;6054;50.966;7.094;2023-04-21T04:04:47;18.60;;;15.93;;
11988;SDS011;6054;50.966;7.094;2023-04-21T04:07:14;18.85;;;15.73;;
11988;SDS011;6054;50.966;7.094;2023-04-21T04:09:41;19.42;;;15.65;;
11988;SDS011;6054;50.966;7.094;2023-04-21T04:12:08;21.58;;;14.98;;
11988;SDS011;6054;50.966;7.094;2023-04-21T04:14:36;18.80;;;15.60;;
11988;SDS011;6054;50.966;7.094;2023-04-21T04:17:03;16.80;;;14.35;;
11988;SDS011;6054;50.966;7.094;2023-04-21T04:19:30;21.40;;;16.58;;
11988;SDS011;6054;50.966;7.094;2023-04-21T04:21:57;18.90;;;15.98;;
11988;SDS011;6054;50.966;7.094;2023-04-21T04:24:24;16.80;;;14.93;;
11988;SDS011;6054;50.966;7.094;2023-04-21T04:26:51;18.13;;;16.02;;
11988;SDS011;6054;50.966;7.094;2023-04-21T04:29:18;19.55;;;16.45;;
11988;SDS011;6054;50.966;7.094;2023-04-21T04:31:47;17.25;;;14.20;;
11988;SDS011;6054;50.966;7.094;2023-04-21T04:34:14;15.80;;;14.15;;
11988;SDS011;6054;50.966;7.094;2023-04-21T04:36:41;16.73;;;13.63;;
11988;SDS011;6054;50.966;7.094;2023-04-21T04:39:08;16.65;;;14.35;;
11988;SDS011;6054;50.966;7.094;2023-04-21T04:41:36;16.08;;;14.35;;
11988;SDS011;6054;50.966;7.094;2023-04-21T04:44:03;18.52;;;14.20;;
11988;SDS011;6054;50.966;7.094;2023-04-21T04:46:30;15.68;;;14.07;;
11988;SDS011;6054;50.966;7.094;2023-04-21T04:48:58;17.67;;;14.73;;
11988;SDS011;6054;50.966;7.094;2023-04-21T04:51:25;15.52;;;13.15;;
11988;SDS011;6054;50.966;7.094;2023-04-21T04:53:51;16.52;;;14.73;;
11988;SDS011;6054;50.966;7.094;2023-04-21T04:56:18;17.17;;;14.35;;
11988;SDS011;6054;50.966;7.094;2023-04-21T04:58:46;16.95;;;15.15;;
11988;SDS011;6054;50.966;7.094;2023-04-21T05:01:12;17.85;;;14.75;;
11988;SDS011;6054;50.966;7.094;2023-04-21T05:03:40;16.50;;;14.27;;
11988;SDS011;6054;50.966;7.094;2023-04-21T05:06:08;17.60;;;15.50;;
11988;SDS011;6054;50.966;7.094;2023-04-21T05:08:35;17.17;;;14.70;;
11988;SDS011;6054;50.966;7.094;2023-04-21T05:11:02;18.63;;;16.10;;
11988;SDS011;6054;50.966;7.094;2023-04-21T05:13:29;17.58;;;14.40;;
11988;SDS011;6054;50.966;7.094;2023-04-21T05:15:56;17.77;;;15.38;;
11988;SDS011;6054;50.966;7.094;2023-04-21T05:18:23;19.05;;;15.50;;
11988;SDS011;6054;50.966;7.094;2023-04-21T05:20:50;18.67;;;16.50;;
11988;SDS011;6054;50.966;7.094;2023-04-21T05:23:18;18.20;;;16.23;;
11988;SDS011;6054;50.966;7.094;2023-04-21T05:25:45;20.05;;;16.55;;
11988;SDS011;6054;50.966;7.094;2023-04-21T05:28:12;18.80;;;16.50;;
11988;SDS011;6054;50.966;7.094;2023-04-21T05:30:39;20.08;;;17.55;;
11988;SDS011;6054;50.966;7.094;2023-04-21T05:33:06;19.75;;;16.83;;
11988;SDS011;6054;50.966;7.094;2023-04-21T05:35:33;18.90;;;15.63;;
11988;SDS011;6054;50.966;7.094;2023-04-21T05:38:00;20.75;;;16.70;;
11988;SDS011;6054;50.966;7.094;2023-04-21T05:40:28;18.70;;;15.27;;
11988;SDS011;6054;50.966;7.094;2023-04-21T05:42:55;19.33;;;15.85;;
11988;SDS011;6054;50.966;7.094;2023-04-21T05:45:21;19.15;;;15.23;;
11988;SDS011;6054;50.966;7.094;2023-04-21T05:47:48;18.98;;;15.75;;
11988;SDS011;6054;50.966;7.094;2023-04-21T05:50:15;18.27;;;16.33;;
11988;SDS011;6054;50.966;7.094;2023-04-21T05:52:41;19.30;;;15.30;;
11988;SDS011;6054;50.966;7.094;2023-04-21T05:55:08;21.02;;;16.17;;
11988;SDS011;6054;50.966;7.094;2023-04-21T05:57:36;19.42;;;15.45;;
11988;SDS011;6054;50.966;7.094;2023-04-21T06:00:03;19.38;;;15.85;;
11988;SDS011;6054;50.966;7.094;2023-04-21T06:02:31;19.27;;;15.13;;
11988;SDS011;6054;50.966;7.094;2023-04-21T06:04:58;17.02;;;14.68;;
11988;SDS011;6054;50.966;7.094;2023-04-21T06:07:24;17.08;;;15.13;;
11988;SDS011;6054;50.966;7.094;2023-04-21T06:09:51;18.67;;;15.77;;
11988;SDS011;6054;50.966;7.094;2023-04-21T06:12:18;17.63;;;15.63;;
11988;SDS011;6054;50.966;7.094;2023-04-21T06:14:46;20.15;;;16.15;;
11988;SDS011;6054;50.966;7.094;2023-04-21T06:17:14;19.73;;;16.70;;
11988;SDS011;6054;50.966;7.094;2023-04-21T06:19:42;19.17;;;16.10;;
11988;SDS011;6054;50.966;7.094;2023-04-21T06:22:08;20.50;;;16.33;;
11988;SDS011;6054;50.966;7.094;2023-04-21T06:24:35;20.55;;;16.52;;
11988;SDS011;6054;50.966;7.094;2023-04-21T06:27:02;19.83;;;16.40;;
11988;SDS011;6054;50.966;7.094;2023-04-21T06:29:29;18.85;;;16.25;;
11988;SDS011;6054;50.966;7.094;2023-04-21T06:31:57;20.65;;;17.30;;
11988;SDS011;6054;50.966;7.094;2023-04-21T06:34:24;20.10;;;16.20;;
11988;SDS011;6054;50.966;7.094;2023-04-21T06:36:51;19.17;;;16.42;;
11988;SDS011;6054;50.966;7.094;2023-04-21T06:39:17;22.08;;;17.88;;
11988;SDS011;6054;50.966;7.094;2023-04-21T06:41:44;21.73;;;18.20;;
11988;SDS011;6054;50.966;7.094;2023-04-21T06:44:11;21.25;;;17.83;;
11988;SDS011;6054;50.966;7.094;2023-04-21T06:46:38;19.60;;;17.15;;
11988;SDS011;6054;50.966;7.094;2023-04-21T06:49:06;21.10;;;17.67;;
11988;SDS011;6054;50.966;7.094;2023-04-21T06:51:33;21.25;;;17.83;;
11988;SDS011;6054;50.966;7.094;2023-04-21T06:54:01;22.55;;;17.67;;
11988;SDS011;6054;50.966;7.094;2023-04-21T06:56:29;22.98;;;18.95;;
11988;SDS011;6054;50.966;7.094;2023-04-21T06:58:55;22.35;;;18.67;;
11988;SDS011;6054;50.966;7.094;2023-04-21T07:01:22;24.50;;;19.73;;
11988;SDS011;6054;50.966;7.094;2023-04-21T07:03:49;22.65;;;19.45;;
11988;SDS011;6054;50.966;7.094;2023-04-21T07:06:17;22.48;;;19.25;;
11988;SDS011;6054;50.966;7.094;2023-04-21T07:08:44;22.77;;;18.95;;
11988;SDS011;6054;50.966;7.094;2023-04-21T07:11:11;26.67;;;20.00;;
11988;SDS011;6054;50.966;7.094;2023-04-21T07:13:37;23.52;;;19.98;;
11988;SDS011;6054;50.966;7.094;2023-04-21T07:16:04;24.23;;;20.30;;
11988;SDS011;6054;50.966;7.094;2023-04-21T07:18:31;22.23;;;19.30;;
11988;SDS011;6054;50.966;7.094;2023-04-21T07:20:58;22.55;;;19.33;;
11988;SDS011;6054;50.966;7.094;2023-04-21T07:23:26;25.20;;;20.05;;
11988;SDS011;6054;50.966;7.094;2023-04-21T07:25:53;23.88;;;20.38;;
11988;SDS011;6054;50.966;7.094;2023-04-21T07:28:20;22.95;;;19.27;;
11988;SDS011;6054;50.966;7.094;2023-04-21T07:30:47;22.00;;;19.08;;
11988;SDS011;6054;50.966;7.094;2023-04-21T07:33:13;22.55;;;18.27;;
11988;SDS011;6054;50.966;7.094;2023-04-21T07:35:40;22.10;;;18.55;;
11988;SDS011;6054;50.966;7.094;2023-04-21T07:38:07;25.17;;;19.65;;
11988;SDS011;6054;50.966;7.094;2023-04-21T07:40:35;23.00;;;19.50;;
11988;SDS011;6054;50.966;7.094;2023-04-21T07:43:02;20.92;;;18.27;;
11988;SDS011;6054;50.966;7.094;2023-04-21T07:45:29;22.10;;;19.63;;
11988;SDS011;6054;50.966;7.094;2023-04-21T07:47:56;20.92;;;18.52;;
11988;SDS011;6054;50.966;7.094;2023-04-21T07:50:23;21.58;;;17.60;;
11988;SDS011;6054;50.966;7.094;2023-04-21T07:52:50;21.52;;;18.40;;
11988;SDS011;6054;50.966;7.094;2023-04-21T07:55:16;22.85;;;18.88;;
11988;SDS011;6054;50.966;7.094;2023-04-21T07:57:45;20.45;;;18.20;;
11988;SDS011;6054;50.966;7.094;2023-04-21T08:00:12;20.98;;;18.20;;
11988;SDS011;6054;50.966;7.094;2023-04-21T08:02:39;20.77;;;18.30;;
11988;SDS011;6054;50.966;7.094;2023-04-21T08:05:07;20.02;;;17.40;;
11988;SDS011;6054;50.966;7.094;2023-04-21T08:07:33;21.35;;;18.33;;
11988;SDS011;6054;50.966;7.094;2023-04-21T08:10:00;21.15;;;18.92;;
11988;SDS011;6054;50.966;7.094;2023-04-21T08:12:27;23.52;;;18.15;;
11988;SDS011;6054;50.966;7.094;2023-04-21T08:14:55;21.15;;;18.55;;
11988;SDS011;6054;50.966;7.094;2023-04-21T08:17:22;23.48;;;18.02;;
11988;SDS011;6054;50.966;7.094;2023-04-21T08:19:49;24.70;;;19.25;;
11988;SDS011;6054;50.966;7.094;2023-04-21T08:22:16;22.02;;;18.33;;
11988;SDS011;6054;50.966;7.094;2023-04-21T08:24:43;24.25;;;18.95;;
11988;SDS011;6054;50.966;7.094;2023-04-21T08:27:09;24.10;;;19.27;;
11988;SDS011;6054;50.966;7.094;2023-04-21T08:29:36;21.63;;;18.90;;
11988;SDS011;6054;50.966;7.094;2023-04-21T08:32:04;22.02;;;19.38;;
11988;SDS011;6054;50.966;7.094;2023-04-21T08:34:31;24.52;;;20.63;;
11988;SDS011;6054;50.966;7.094;2023-04-21T08:36:58;22.02;;;19.05;;
11988;SDS011;6054;50.966;7.094;2023-04-21T08:39:24;22.90;;;18.95;;
11988;SDS011;6054;50.966;7.094;2023-04-21T08:41:51;22.92;;;19.88;;
11988;SDS011;6054;50.966;7.094;2023-04-21T08:44:19;22.05;;;18.98;;
11988;SDS011;6054;50.966;7.094;2023-04-21T08:46:46;23.08;;;19.20;;
11988;SDS011;6054;50.966;7.094;2023-04-21T08:49:17;21.77;;;18.17;;
11988;SDS011;6054;50.966;7.094;2023-04-21T08:51:46;22.85;;;19.42;;
11988;SDS011;6054;50.966;7.094;2023-04-21T08:54:12;22.88;;;18.42;;
11988;SDS011;6054;50.966;7.094;2023-04-21T08:56:39;22.30;;;18.95;;
11988;SDS011;6054;50.966;7.094;2023-04-21T08:59:06;23.13;;;18.85;;
11988;SDS011;6054;50.966;7.094;2023-04-21T09:01:33;21.30;;;18.73;;
11988;SDS011;6054;50.966;7.094;2023-04-21T09:04:34;19.27;;;17.00;;
11988;SDS011;6054;50.966;7.094;2023-04-21T09:07:02;24.38;;;18.25;;
11988;SDS011;6054;50.966;7.094;2023-04-21T09:09:29;21.65;;;17.85;;
11988;SDS011;6054;50.966;7.094;2023-04-21T09:11:56;19.77;;;17.10;;
11988;SDS011;6054;50.966;7.094;2023-04-21T09:14:27;20.60;;;18.38;;
11988;SDS011;6054;50.966;7.094;2023-04-21T09:17:00;22.83;;;18.58;;
11988;SDS011;6054;50.966;7.094;2023-04-21T09:19:28;20.77;;;18.58;;
11988;SDS011;6054;50.966;7.094;2023-04-21T09:22:00;21.10;;;17.98;;
11988;SDS011;6054;50.966;7.094;2023-04-21T09:24:27;21.58;;;17.83;;
11988;SDS011;6054;50.966;7.094;2023-04-21T09:26:53;20.83;;;17.65;;
11988;SDS011;6054;50.966;7.094;2023-04-21T09:29:21;22.90;;;18.70;;
11988;SDS011;6054;50.966;7.094;2023-04-21T09:31:48;22.73;;;19.10;;
11988;SDS011;6054;50.966;7.094;2023-04-21T09:34:18;23.98;;;18.90;;
11988;SDS011;6054;50.966;7.094;2023-04-21T09:36:48;20.42;;;18.25;;
11988;SDS011;6054;50.966;7.094;2023-04-21T09:39:26;21.33;;;18.23;;
11988;SDS011;6054;50.966;7.094;2023-04-21T09:41:54;21.13;;;18.02;;
11988;SDS011;6054;50.966;7.094;2023-04-21T09:44:22;19.30;;;17.13;;
11988;SDS011;6054;50.966;7.094;2023-04-21T09:46:49;22.25;;;16.58;;
11988;SDS011;6054;50.966;7.094;2023-04-21T09:49:16;22.00;;;17.58;;
11988;SDS011;6054;50.966;7.094;2023-04-21T09:51:44;20.25;;;16.67;;
11988;SDS011;6054;50.966;7.094;2023-04-21T09:54:12;22.38;;;16.88;;
11988;SDS011;6054;50.966;7.094;2023-04-21T09:56:43;22.27;;;17.02;;
11988;SDS011;6054;50.966;7.094;2023-04-21T09:59:15;19.27;;;17.20;;
11988;SDS011;6054;50.966;7.094;2023-04-21T10:01:46;19.33;;;17.33;;
11988;SDS011;6054;50.966;7.094;2023-04-21T10:04:14;21.13;;;16.25;;
11988;SDS011;6054;50.966;7.094;2023-04-21T10:06:42;20.58;;;17.55;;
11988;SDS011;6054;50.966;7.094;2023-04-21T10:09:10;19.05;;;16.80;;
11988;SDS011;6054;50.966;7.094;2023-04-21T10:11:38;20.33;;;17.13;;
11988;SDS011;6054;50.966;7.094;2023-04-21T10:14:07;18.55;;;16.55;;
11988;SDS011;6054;50.966;7.094;2023-04-21T10:16:34;18.33;;;15.70;;
11988;SDS011;6054;50.966;7.094;2023-04-21T10:19:02;19.13;;;16.05;;
11988;SDS011;6054;50.966;7.094;2023-04-21T10:21:48;18.27;;;16.30;;
11988;SDS011;6054;50.966;7.094;2023-04-21T10:24:15;17.50;;;15.13;;
11988;SDS011;6054;50.966;7.094;2023-04-21T10:26:42;17.08;;;15.18;;
11988;SDS011;6054;50.966;7.094;2023-04-21T10:29:10;15.77;;;13.80;;
11988;SDS011;6054;50.966;7.094;2023-04-21T10:31:49;16.27;;;14.18;;
11988;SDS011;6054;50.966;7.094;2023-04-21T10:34:18;16.70;;;13.57;;
11988;SDS011;6054;50.966;7.094;2023-04-21T10:39:45;15.93;;;13.98;;
11988;SDS011;6054;50.966;7.094;2023-04-21T10:42:20;17.33;;;12.65;;
11988;SDS011;6054;50.966;7.094;2023-04-21T10:44:59;15.35;;;13.13;;
11988;SDS011;6054;50.966;7.094;2023-04-21T10:47:37;15.70;;;12.57;;
11988;SDS011;6054;50.966;7.094;2023-04-21T10:50:10;13.32;;;11.95;;
11988;SDS011;6054;50.966;7.094;2023-04-21T10:52:42;13.50;;;11.88;;
11988;SDS011;6054;50.966;7.094;2023-04-21T10:55:10;12.73;;;11.05;;
11988;SDS011;6054;50.966;7.094;2023-04-21T10:57:40;11.65;;;10.45;;
11988;SDS011;6054;50.966;7.094;2023-04-21T11:00:13;13.40;;;11.35;;
11988;SDS011;6054;50.966;7.094;2023-04-21T11:02:41;12.23;;;10.30;;
11988;SDS011;6054;50.966;7.094;2023-04-21T11:05:09;10.90;;;9.63;;
11988;SDS011;6054;50.966;7.094;2023-04-21T11:07:36;12.23;;;10.25;;
11988;SDS011;6054;50.966;7.094;2023-04-21T11:10:03;11.07;;;9.40;;
11988;SDS011;6054;50.966;7.094;2023-04-21T11:12:32;9.48;;;8.48;;
11988;SDS011;6054;50.966;7.094;2023-04-21T11:15:02;10.68;;;9.10;;
11988;SDS011;6054;50.966;7.094;2023-04-21T11:17:33;10.30;;;9.07;;
11988;SDS011;6054;50.966;7.094;2023-04-21T11:20:01;11.80;;;9.18;;
11988;SDS011;6054;50.966;7.094;2023-04-21T11:22:30;9.15;;;8.18;;
11988;SDS011;6054;50.966;7.094;2023-04-21T11:24:57;9.45;;;7.95;;
11988;SDS011;6054;50.966;7.094;2023-04-21T11:27:25;10.15;;;9.15;;
11988;SDS011;6054;50.966;7.094;2023-04-21T11:29:53;8.57;;;7.68;;
11988;SDS011;6054;50.966;7.094;2023-04-21T11:32:21;8.18;;;7.38;;
11988;SDS011;6054;50.966;7.094;2023-04-21T11:34:49;8.13;;;7.32;;
11988;SDS011;6054;50.966;7.094;2023-04-21T11:37:19;6.82;;;6.15;;
11988;SDS011;6054;50.966;7.094;2023-04-21T11:39:48;10.73;;;8.90;;
11988;SDS011;6054;50.966;7.094;2023-04-21T11:42:19;10.80;;;8.07;;
11988;SDS011;6054;50.966;7.094;2023-04-21T11:44:46;8.27;;;7.47;;
11988;SDS011;6054;50.966;7.094;2023-04-21T11:47:13;8.98;;;8.10;;
11988;SDS011;6054;50.966;7.094;2023-04-21T11:49:45;9.18;;;7.60;;
11988;SDS011;6054;50.966;7.094;2023-04-21T11:52:21;8.80;;;7.90;;
11988;SDS011;6054;50.966;7.094;2023-04-21T11:54:53;8.25;;;7.45;;
11988;SDS011;6054;50.966;7.094;2023-04-21T11:57:22;8.60;;;7.68;;
11988;SDS011;6054;50.966;7.094;2023-04-21T11:59:50;10.07;;;8.38;;
11988;SDS011;6054;50.966;7.094;2023-04-21T12:02:22;9.95;;;8.05;;
11988;SDS011;6054;50.966;7.094;2023-04-21T12:04:57;10.93;;;8.90;;
11988;SDS011;6054;50.966;7.094;2023-04-21T12:07:27;11.82;;;10.50;;
11988;SDS011;6054;50.966;7.094;2023-04-21T12:09:55;11.63;;;9.85;;
11988;SDS011;6054;50.966;7.094;2023-04-21T12:12:21;10.35;;;9.23;;
11988;SDS011;6054;50.966;7.094;2023-04-21T12:14:49;10.60;;;9.55;;
11988;SDS011;6054;50.966;7.094;2023-04-21T12:17:17;11.48;;;8.90;;
11988;SDS011;6054;50.966;7.094;2023-04-21T12:19:44;10.10;;;9.10;;
11988;SDS011;6054;50.966;7.094;2023-04-21T12:22:11;10.68;;;9.57;;
11988;SDS011;6054;50.966;7.094;2023-04-21T12:24:40;10.30;;;9.35;;
11988;SDS011;6054;50.966;7.094;2023-04-21T12:27:08;10.70;;;9.60;;
11988;SDS011;6054;50.966;7.094;2023-04-21T12:29:35;11.20;;;9.90;;
11988;SDS011;6054;50.966;7.094;2023-04-21T12:32:02;11.15;;;10.05;;
11988;SDS011;6054;50.966;7.094;2023-04-21T12:34:29;10.85;;;9.75;;
11988;SDS011;6054;50.966;7.094;2023-04-21T12:36:56;12.23;;;9.38;;
11988;SDS011;6054;50.966;7.094;2023-04-21T12:39:22;8.88;;;8.07;;
11988;SDS011;6054;50.966;7.094;2023-04-21T12:41:50;10.40;;;9.30;;
11988;SDS011;6054;50.966;7.094;2023-04-21T12:44:17;9.65;;;8.75;;
11988;SDS011;6054;50.966;7.094;2023-04-21T12:46:45;9.75;;;8.85;;
11988;SDS011;6054;50.966;7.094;2023-04-21T12:49:13;9.27;;;8.15;;
11988;SDS011;6054;50.966;7.094;2023-04-21T12:51:41;7.68;;;6.95;;
11988;SDS011;6054;50.966;7.094;2023-04-21T12:54:08;8.43;;;7.63;;
11988;SDS011;6054;50.966;7.094;2023-04-21T12:56:35;8.45;;;7.65;;
11988;SDS011;6054;50.966;7.094;2023-04-21T12:59:05;9.57;;;8.25;;
11988;SDS011;6054;50.966;7.094;2023-04-21T13:01:32;9.82;;;7.72;;
11988;SDS011;6054;50.966;7.094;2023-04-21T13:03:59;8.25;;;7.55;;
11988;SDS011;6054;50.966;7.094;2023-04-21T13:06:25;8.68;;;7.85;;
11988;SDS011;6054;50.966;7.094;2023-04-21T13:08:53;8.32;;;7.63;;
11988;SDS011;6054;50.966;7.094;2023-04-21T13:11:19;8.18;;;7.47;;
11988;SDS011;6054;50.966;7.094;2023-04-21T13:13:46;8.77;;;7.97;;
11988;SDS011;6054;50.966;7.094;2023-04-21T13:16:14;8.63;;;7.63;;
11988;SDS011;6054;50.966;7.094;2023-04-21T13:18:41;8.75;;;7.95;;
11988;SDS011;6054;50.966;7.094;2023-04-21T13:21:09;8.57;;;7.88;;
11988;SDS011;6054;50.966;7.094;2023-04-21T13:23:36;8.27;;;7.57;;
11988;SDS011;6054;50.966;7.094;2023-04-21T13:26:03;9.23;;;8.32;;
11988;SDS011;6054;50.966;7.094;2023-04-21T13:28:30;8.40;;;7.57;;
11988;SDS011;6054;50.966;7.094;2023-04-21T13:30:57;8.48;;;7.68;;
11988;SDS011;6054;50.966;7.094;2023-04-21T13:33:25;9.73;;;7.68;;
11988;SDS011;6054;50.966;7.094;2023-04-21T13:35:52;8.82;;;7.93;;
11988;SDS011;6054;50.966;7.094;2023-04-21T13:38:19;7.82;;;7.03;;
11988;SDS011;6054;50.966;7.094;2023-04-21T13:40:46;7.93;;;7.10;;
11988;SDS011;6054;50.966;7.094;2023-04-21T13:43:13;8.20;;;7.38;;
11988;SDS011;6054;50.966;7.094;2023-04-21T13:45:40;7.50;;;6.80;;
11988;SDS011;6054;50.966;7.094;2023-04-21T13:48:07;8.25;;;7.10;;
11988;SDS011;6054;50.966;7.094;2023-04-21T13:50:35;7.97;;;7.28;;
11988;SDS011;6054;50.966;7.094;2023-04-21T13:53:01;6.90;;;6.30;;
11988;SDS011;6054;50.966;7.094;2023-04-21T13:55:28;7.75;;;7.05;;
11988;SDS011;6054;50.966;7.094;2023-04-21T13:57:57;7.18;;;6.57;;
11988;SDS011;6054;50.966;7.094;2023-04-21T14:00:24;7.57;;;6.88;;
11988;SDS011;6054;50.966;7.094;2023-04-21T14:02:51;6.88;;;6.10;;
11988;SDS011;6054;50.966;7.094;2023-04-21T14:05:17;7.07;;;6.47;;
11988;SDS011;6054;50.966;7.094;2023-04-21T14:07:45;6.63;;;6.10;;
11988;SDS011;6054;50.966;7.094;2023-04-21T14:10:13;6.40;;;5.90;;
11988;SDS011;6054;50.966;7.094;2023-04-21T14:12:40;6.50;;;5.88;;
11988;SDS011;6054;50.966;7.094;2023-04-21T14:15:09;6.35;;;5.47;;
11988;SDS011;6054;50.966;7.094;2023-04-21T14:17:37;6.55;;;5.85;;
11988;SDS011;6054;50.966;7.094;2023-04-21T14:20:04;6.28;;;5.78;;
11988;SDS011;6054;50.966;7.094;2023-04-21T14:22:33;5.78;;;5.28;;
11988;SDS011;6054;50.966;7.094;2023-04-21T14:25:01;6.07;;;5.18;;
11988;SDS011;6054;50.966;7.094;2023-04-21T14:27:28;6.15;;;5.65;;
11988;SDS011;6054;50.966;7.094;2023-04-21T14:29:55;6.15;;;5.65;;
11988;SDS011;6054;50.966;7.094;2023-04-21T14:32:23;5.63;;;5.22;;
11988;SDS011;6054;50.966;7.094;2023-04-21T14:34:50;5.10;;;4.70;;
11988;SDS011;6054;50.966;7.094;2023-04-21T14:37:17;5.40;;;4.90;;
11988;SDS011;6054;50.966;7.094;2023-04-21T14:39:44;5.38;;;4.90;;
11988;SDS011;6054;50.966;7.094;2023-04-21T14:42:13;5.70;;;5.18;;
11988;SDS011;6054;50.966;7.094;2023-04-21T14:44:40;8.48;;;5.03;;
11988;SDS011;6054;50.966;7.094;2023-04-21T14:47:06;5.10;;;4.60;;